Time;durP1;ratioP1;P1;durP2;ratioP2;P2;SDS_P1;SDS_P2;PMS_P1;PMS_P2;Temp;Humidity;BMP_temperature;BMP_pressure;BME280_temperature;BME280_humidity;BME280_pressure;Samples;Min_cycle;Max_cycle;Signal;HPM_P1;HPM_P2
2021/11/23 00:01:51;;;;;;;1.77;1.10;;;;;;;4.13;66.11;101275.81;6142166;29;20213;-72
2021/11/23 00:05:17;;;;;;;1.30;1.00;;;;;;;4.07;65.90;101287.25;6140839;29;20236;-72
2021/11/23 00:08:21;;;;;;;4.07;1.00;;;;;;;4.17;66.04;101293.34;6140990;29;20229;-72
2021/11/23 00:11:25;;;;;;;1.50;1.30;;;;;;;3.96;66.44;101284.84;6141833;29;20218;-73
2021/11/23 00:14:30;;;;;;;2.60;0.93;;;;;;;4.08;65.93;101294.34;6141622;29;20200;-72
2021/11/23 00:17:34;;;;;;;8.03;1.37;;;;;;;4.07;65.65;101298.06;6141008;29;20204;-72
2021/11/23 00:20:42;;;;;;;1.63;1.00;;;;;;;3.97;65.29;101305.44;6141521;29;20195;-72
2021/11/23 00:23:47;;;;;;;0.87;0.87;;;;;;;3.96;66.30;101306.44;6141766;29;20199;-72
2021/11/23 00:26:51;;;;;;;3.83;1.07;;;;;;;4.08;65.79;101321.34;6140414;29;20196;-72
2021/11/23 00:29:56;;;;;;;1.07;1.07;;;;;;;4.11;65.72;101326.44;6140309;29;20496;-72
2021/11/23 00:33:01;;;;;;;3.63;1.10;;;;;;;4.15;65.90;101338.59;6140395;29;20513;-72
2021/11/23 00:36:07;;;;;;;2.10;1.00;;;;;;;4.20;66.20;101353.31;6141688;29;20192;-72
2021/11/23 00:39:12;;;;;;;0.90;0.90;;;;;;;4.08;66.60;101353.75;6140959;29;20191;-72
2021/11/23 00:42:16;;;;;;;0.90;0.90;;;;;;;4.01;66.76;101364.34;6140280;29;20484;-72
2021/11/23 00:45:21;;;;;;;1.03;1.00;;;;;;;3.99;65.91;101370.91;6140565;29;20202;-72
2021/11/23 00:48:25;;;;;;;2.10;1.37;;;;;;;3.98;66.67;101374.66;6140416;29;20191;-72
2021/11/23 00:51:31;;;;;;;0.97;0.97;;;;;;;3.77;66.86;101378.56;6141332;29;20223;-73
2021/11/23 00:54:35;;;;;;;1.30;1.10;;;;;;;3.78;67.10;101374.00;6140059;29;20553;-73
2021/11/23 00:57:39;;;;;;;3.00;1.10;;;;;;;3.80;67.42;101389.03;6141132;29;20192;-73
2021/11/23 01:00:44;;;;;;;2.43;1.17;;;;;;;3.72;66.70;101391.69;6141425;29;20195;-73
2021/11/23 01:03:48;;;;;;;1.07;0.97;;;;;;;3.86;67.57;101400.19;6140851;29;20295;-73
2021/11/23 01:06:54;;;;;;;3.20;0.90;;;;;;;3.74;67.14;101399.66;6144196;29;20222;-73
2021/11/23 01:09:58;;;;;;;1.13;1.00;;;;;;;3.74;68.28;101414.00;6144511;29;20405;-73
2021/11/23 01:13:03;;;;;;;3.47;1.40;;;;;;;3.75;67.52;101406.72;6145443;29;20287;-74
2021/11/23 01:16:08;;;;;;;3.63;1.20;;;;;;;3.90;67.62;101410.53;6145421;29;20191;-74
2021/11/23 01:19:13;;;;;;;0.97;0.97;;;;;;;3.95;67.02;101418.16;6145216;29;20191;-73
2021/11/23 01:22:19;;;;;;;3.17;1.30;;;;;;;3.89;67.39;101413.38;6144589;29;20218;-73
2021/11/23 01:25:24;;;;;;;3.50;1.00;;;;;;;3.98;68.05;101423.25;6144243;29;20477;-73
2021/11/23 01:28:29;;;;;;;2.37;0.93;;;;;;;3.99;68.08;101427.63;6145091;29;20199;-73
2021/11/23 01:31:33;;;;;;;1.03;0.97;;;;;;;4.02;67.77;101430.00;6144936;29;20218;-73
2021/11/23 01:34:37;;;;;;;1.10;1.10;;;;;;;3.95;67.37;101439.75;6145303;29;20207;-73
2021/11/23 01:37:45;;;;;;;3.80;0.97;;;;;;;3.86;68.67;101435.28;6145203;29;20198;-73
2021/11/23 01:40:50;;;;;;;1.53;1.13;;;;;;;4.14;67.99;101444.91;6145196;29;20196;-73
2021/11/23 01:43:54;;;;;;;1.07;0.87;;;;;;;3.93;67.90;101441.78;6144990;29;20191;-73
2021/11/23 01:46:58;;;;;;;5.17;1.20;;;;;;;3.92;68.06;101446.31;6144527;29;20191;-73
2021/11/23 01:50:05;;;;;;;1.40;0.80;;;;;;;3.84;68.38;101448.09;6143552;29;20198;-73
2021/11/23 01:53:12;;;;;;;1.77;1.10;;;;;;;3.93;68.66;101452.56;6144862;29;20223;-73
2021/11/23 01:56:17;;;;;;;2.37;1.10;;;;;;;3.89;68.79;101452.03;6143442;29;20191;-73
2021/11/23 01:59:21;;;;;;;0.90;0.90;;;;;;;3.68;69.91;101465.88;6144396;29;20198;-73
2021/11/23 02:02:25;;;;;;;1.60;1.20;;;;;;;3.78;70.08;101465.78;6143725;29;20200;-73
2021/11/23 02:05:30;;;;;;;0.90;0.90;;;;;;;3.64;70.40;101472.63;6143521;29;20270;-73
2021/11/23 02:08:36;;;;;;;0.70;0.70;;;;;;;3.69;70.29;101472.13;6143243;29;20255;-73
2021/11/23 02:11:40;;;;;;;4.87;1.10;;;;;;;3.62;70.93;101471.09;6143156;29;20534;-73
2021/11/23 02:14:45;;;;;;;0.97;0.97;;;;;;;3.52;70.69;101486.47;6143529;29;20194;-73
2021/11/23 02:17:50;;;;;;;0.83;0.83;;;;;;;3.52;71.86;101476.53;6141838;29;20214;-73
2021/11/23 02:20:56;;;;;;;2.10;0.90;;;;;;;3.62;71.39;101493.50;6143622;29;20493;-73
2021/11/23 02:24:01;;;;;;;1.47;1.00;;;;;;;3.43;71.52;101493.69;6144155;29;20198;-73
2021/11/23 02:27:05;;;;;;;3.53;0.90;;;;;;;3.48;72.01;101495.91;6144213;29;20190;-73
2021/11/23 02:30:12;;;;;;;0.70;0.70;;;;;;;3.50;71.99;101502.84;6143626;29;20191;-72
2021/11/23 02:33:18;;;;;;;0.90;0.90;;;;;;;3.57;72.03;101512.00;6143089;29;20219;-73
2021/11/23 02:36:24;;;;;;;0.83;0.83;;;;;;;3.55;72.01;101497.81;6143918;29;20191;-73
2021/11/23 02:39:28;;;;;;;0.90;0.90;;;;;;;3.51;71.93;101518.03;6142509;29;20192;-72
2021/11/23 02:42:32;;;;;;;1.73;0.90;;;;;;;3.61;71.62;101510.72;6142443;29;20500;-73
2021/11/23 02:45:37;;;;;;;0.80;0.80;;;;;;;3.50;72.06;101507.38;6143441;29;20286;-72
2021/11/23 02:48:42;;;;;;;0.70;0.70;;;;;;;3.46;72.98;101514.09;6142651;29;20191;-73
2021/11/23 02:51:48;;;;;;;0.83;0.83;;;;;;;3.56;72.36;101521.13;6143252;29;20219;-73
2021/11/23 02:54:56;;;;;;;0.90;0.90;;;;;;;3.50;72.41;101520.88;6143149;29;20218;-73
2021/11/23 02:58:00;;;;;;;1.27;0.90;;;;;;;3.44;72.54;101529.59;6142133;29;20191;-71
2021/11/23 03:01:07;;;;;;;0.90;0.90;;;;;;;3.54;72.99;101533.06;6142592;29;20199;-73
2021/11/23 03:04:17;;;;;;;1.03;0.90;;;;;;;3.47;72.54;101540.06;6142422;29;20270;-73
2021/11/23 03:07:24;;;;;;;0.80;0.80;;;;;;;3.37;73.31;101539.28;6143079;29;20199;-73
2021/11/23 03:10:30;;;;;;;1.90;1.00;;;;;;;3.43;73.16;101544.94;6143133;29;20191;-73
2021/11/23 03:13:35;;;;;;;1.50;0.90;;;;;;;3.35;73.62;101555.63;6143107;29;20218;-73
2021/11/23 03:16:39;;;;;;;1.80;0.80;;;;;;;3.40;73.42;101553.31;6141860;29;20198;-73
2021/11/23 03:19:44;;;;;;;0.77;0.77;;;;;;;3.43;73.02;101554.88;6143040;29;20195;-73
2021/11/23 03:22:51;;;;;;;1.23;1.03;;;;;;;3.22;73.37;101555.16;6141650;29;20458;-73
2021/11/23 03:25:56;;;;;;;0.83;0.83;;;;;;;3.39;73.29;101557.00;6143114;29;20190;-73
2021/11/23 03:29:00;;;;;;;1.47;1.00;;;;;;;3.40;72.81;101558.72;6141998;29;20188;-73
2021/11/23 03:32:06;;;;;;;1.33;0.90;;;;;;;3.20;73.73;101551.78;6142611;29;20216;-71
2021/11/23 03:35:13;;;;;;;0.70;0.70;;;;;;;3.31;74.11;101551.56;6142543;29;20240;-72
2021/11/23 03:38:21;;;;;;;1.03;0.80;;;;;;;3.22;73.92;101560.56;6142234;29;20190;-72
2021/11/23 03:41:25;;;;;;;0.80;0.80;;;;;;;3.35;73.60;101570.97;6141112;29;20196;-72
2021/11/23 03:44:30;;;;;;;0.70;0.70;;;;;;;3.25;73.26;101560.25;6141711;29;20196;-72
2021/11/23 03:47:36;;;;;;;0.80;0.80;;;;;;;3.30;74.07;101555.25;6141199;29;20214;-72
2021/11/23 03:50:41;;;;;;;0.90;0.90;;;;;;;3.35;73.53;101561.03;6141047;29;20420;-72
2021/11/23 03:53:47;;;;;;;0.90;0.90;;;;;;;3.42;73.75;101572.91;6142141;29;20282;-72
2021/11/23 03:56:52;;;;;;;0.77;0.77;;;;;;;3.46;73.60;101574.31;6140919;29;20262;-72
2021/11/23 03:59:56;;;;;;;0.80;0.80;;;;;;;3.33;73.84;101578.38;6140836;29;20543;-72
2021/11/23 04:03:01;;;;;;;2.13;0.97;;;;;;;3.37;73.69;101580.59;6141019;29;20224;-72
2021/11/23 04:06:06;;;;;;;0.70;0.70;;;;;;;3.44;73.96;101581.69;6140566;29;20321;-71
2021/11/23 04:09:12;;;;;;;0.80;0.80;;;;;;;3.38;74.41;101581.47;6141024;29;20188;-72
2021/11/23 04:12:16;;;;;;;0.80;0.80;;;;;;;3.44;73.46;101587.06;6140578;29;20530;-71
2021/11/23 04:15:21;;;;;;;1.10;0.70;;;;;;;3.32;73.56;101591.00;6141777;29;20191;-72
2021/11/23 04:18:25;;;;;;;0.80;0.80;;;;;;;3.35;73.87;101592.53;6140631;29;20482;-72
2021/11/23 04:21:30;;;;;;;1.17;0.73;;;;;;;3.22;74.17;101598.31;6140492;29;20286;-72
2021/11/23 04:24:36;;;;;;;0.73;0.73;;;;;;;3.25;74.06;101597.16;6140464;29;20543;-72
2021/11/23 04:27:40;;;;;;;0.70;0.70;;;;;;;3.06;74.60;101598.09;6140578;29;20192;-72
2021/11/23 04:30:45;;;;;;;0.77;0.77;;;;;;;3.20;74.88;101608.41;6141375;29;20194;-72
2021/11/23 04:33:49;;;;;;;0.90;0.80;;;;;;;3.16;74.75;101609.69;6141331;29;20252;-72
2021/11/23 04:36:53;;;;;;;0.87;0.87;;;;;;;2.89;76.03;101617.78;6141749;29;20195;-72
2021/11/23 04:39:58;;;;;;;0.87;0.87;;;;;;;3.01;75.70;101621.97;6141172;29;20194;-71
2021/11/23 04:43:06;;;;;;;0.83;0.80;;;;;;;3.11;74.92;101620.06;6146132;29;20192;-72
2021/11/23 04:46:10;;;;;;;0.80;0.80;;;;;;;2.96;75.70;101621.56;6146063;29;20199;-71
2021/11/23 04:49:14;;;;;;;1.10;0.80;;;;;;;3.12;75.56;101632.56;6146020;29;20265;-72
2021/11/23 04:52:19;;;;;;;0.83;0.83;;;;;;;3.13;74.82;101631.59;6145796;29;20213;-72
2021/11/23 04:55:24;;;;;;;0.80;0.80;;;;;;;3.07;74.97;101637.56;6144879;29;20410;-72
2021/11/23 04:58:29;;;;;;;1.00;0.90;;;;;;;3.11;75.02;101644.34;6145594;29;20188;-72
2021/11/23 05:01:33;;;;;;;0.83;0.80;;;;;;;3.20;75.40;101643.47;6146099;29;20197;-72
2021/11/23 05:04:38;;;;;;;1.00;1.00;;;;;;;3.30;74.37;101646.09;6146091;29;20277;-72
2021/11/23 05:07:43;;;;;;;0.80;0.80;;;;;;;3.39;73.99;101648.72;6144743;29;20443;-71
2021/11/23 05:10:49;;;;;;;0.90;0.90;;;;;;;3.18;74.13;101651.69;6145193;29;20191;-72
2021/11/23 05:13:53;;;;;;;3.50;1.03;;;;;;;3.22;74.22;101657.63;6144465;29;20446;-71
2021/11/23 05:16:57;;;;;;;0.87;0.87;;;;;;;3.23;73.92;101648.56;6145133;29;20190;-71
2021/11/23 05:20:01;;;;;;;0.80;0.80;;;;;;;3.20;73.89;101651.56;6145065;29;20261;-72
2021/11/23 05:23:06;;;;;;;1.00;1.00;;;;;;;3.03;74.66;101658.56;6145269;29;20234;-72
2021/11/23 05:26:13;;;;;;;1.00;1.00;;;;;;;2.87;74.82;101663.75;6145301;29;20270;-72
2021/11/23 05:29:17;;;;;;;6.90;1.40;;;;;;;3.11;73.87;101660.53;6145487;29;20260;-72
2021/11/23 05:32:22;;;;;;;1.20;1.10;;;;;;;2.96;74.37;101653.91;6145464;29;20254;-73
2021/11/23 05:35:26;;;;;;;1.13;1.13;;;;;;;3.23;73.57;101664.75;6144619;29;20195;-72
2021/11/23 05:38:30;;;;;;;0.83;0.83;;;;;;;3.17;74.06;101678.81;6145346;29;20195;-72
2021/11/23 05:41:36;;;;;;;1.00;1.00;;;;;;;3.06;73.71;101679.00;6143996;29;20190;-72
2021/11/23 05:44:40;;;;;;;0.80;0.80;;;;;;;3.05;74.42;101677.31;6145196;29;20198;-72
2021/11/23 05:47:44;;;;;;;1.00;1.00;;;;;;;3.11;73.63;101676.69;6145046;29;20336;-72
2021/11/23 05:50:48;;;;;;;0.93;0.90;;;;;;;3.08;73.98;101685.09;6144014;29;20255;-72
2021/11/23 05:53:52;;;;;;;2.27;1.10;;;;;;;2.99;73.82;101688.69;6143602;29;20549;-72
2021/11/23 05:56:58;;;;;;;0.97;0.97;;;;;;;2.90;74.44;101678.78;6144664;29;20198;-72
2021/11/23 06:00:02;;;;;;;3.07;1.10;;;;;;;2.91;74.64;101680.47;6144438;29;20191;-72
2021/11/23 06:03:15;;;;;;;1.00;1.00;;;;;;;2.98;74.99;101686.97;6143511;29;20511;-72
2021/11/23 06:06:19;;;;;;;1.93;1.17;;;;;;;2.95;74.61;101698.06;6144899;29;20250;-72
2021/11/23 06:09:23;;;;;;;1.60;1.27;;;;;;;2.87;74.51;101697.94;6143559;29;20198;-71
2021/11/23 06:12:31;;;;;;;0.90;0.90;;;;;;;2.73;74.71;101704.63;6142983;29;20194;-72
2021/11/23 06:15:37;;;;;;;1.40;1.10;;;;;;;2.97;74.05;101701.47;6144408;29;20191;-72
2021/11/23 06:18:41;;;;;;;1.00;1.00;;;;;;;2.99;73.80;101707.53;6143737;29;20202;-72
2021/11/23 06:21:46;;;;;;;0.90;0.90;;;;;;;2.71;74.92;101714.72;6142824;29;20248;-73
2021/11/23 06:24:50;;;;;;;2.20;1.00;;;;;;;2.52;75.53;101718.28;6143913;29;20200;-73
2021/11/23 06:27:56;;;;;;;1.50;1.00;;;;;;;2.40;76.03;101719.44;6142904;29;20479;-72
2021/11/23 06:31:00;;;;;;;1.00;1.00;;;;;;;2.39;77.27;101728.50;6142654;29;20489;-72
2021/11/23 06:34:07;;;;;;;1.30;1.00;;;;;;;2.48;76.83;101732.19;6142657;29;20432;-73
2021/11/23 06:37:13;;;;;;;1.10;1.00;;;;;;;2.50;76.34;101731.06;6143840;29;20189;-73
2021/11/23 06:40:17;;;;;;;1.00;1.00;;;;;;;2.67;75.94;101731.31;6126088;29;20215;-72
2021/11/23 06:43:22;;;;;;;1.10;1.10;;;;;;;2.63;76.03;101735.28;6142240;29;20382;-71
2021/11/23 06:46:26;;;;;;;0.87;0.87;;;;;;;2.69;75.96;101729.34;6142333;29;20417;-72
2021/11/23 06:49:31;;;;;;;1.87;1.30;;;;;;;2.57;76.59;101741.28;6142340;29;20263;-72
2021/11/23 06:52:35;;;;;;;1.10;1.00;;;;;;;2.65;76.10;101754.84;6142295;29;20446;-73
2021/11/23 06:55:41;;;;;;;1.30;1.20;;;;;;;2.65;76.12;101746.75;6143242;29;20220;-73
2021/11/23 06:58:46;;;;;;;1.13;1.10;;;;;;;2.53;76.77;101746.09;6143071;29;20233;-73
2021/11/23 07:01:51;;;;;;;1.60;1.00;;;;;;;2.68;75.71;101746.47;6142715;29;20212;-73
2021/11/23 07:04:56;;;;;;;1.00;1.00;;;;;;;2.75;75.40;101756.53;6142044;29;20291;-73
2021/11/23 07:08:00;;;;;;;1.07;1.07;;;;;;;2.64;75.67;101758.56;6142854;29;20223;-72
2021/11/23 07:11:05;;;;;;;1.03;1.00;;;;;;;2.50;75.56;101752.59;6142821;29;20192;-72
2021/11/23 07:14:14;;;;;;;1.53;1.40;;;;;;;2.71;75.29;101762.38;6141431;29;20569;-72
2021/11/23 07:17:18;;;;;;;1.43;1.33;;;;;;;2.74;75.38;101770.16;6142747;29;20189;-72
2021/11/23 07:20:23;;;;;;;2.67;1.23;;;;;;;2.82;74.97;101773.00;6141850;29;20188;-72
2021/11/23 07:23:27;;;;;;;2.63;1.10;;;;;;;2.75;74.55;101777.28;6142281;29;20188;-72
2021/11/23 07:26:32;;;;;;;1.03;1.03;;;;;;;2.58;75.73;101780.66;6142252;29;20453;-72
2021/11/23 07:29:38;;;;;;;1.20;1.20;;;;;;;2.64;75.75;101785.50;6142373;29;20191;-72
2021/11/23 07:32:42;;;;;;;2.67;1.37;;;;;;;2.68;75.50;101786.91;6141247;29;20191;-72
2021/11/23 07:35:46;;;;;;;3.93;1.47;;;;;;;2.66;76.16;101784.38;6142152;29;20212;-74
2021/11/23 07:38:53;;;;;;;1.00;1.00;;;;;;;2.72;75.48;101788.34;6142115;29;20195;-73
2021/11/23 07:41:57;;;;;;;2.57;1.10;;;;;;;2.74;75.86;101786.34;6142117;29;20189;-74
2021/11/23 07:45:03;;;;;;;1.67;1.07;;;;;;;2.67;75.84;101790.59;6142365;29;20253;-72
2021/11/23 07:48:12;;;;;;;1.20;1.10;;;;;;;2.68;75.58;101781.50;6142023;29;20188;-73
2021/11/23 07:51:16;;;;;;;4.03;1.10;;;;;;;2.72;75.19;101799.09;6142277;29;20303;-72
2021/11/23 07:54:20;;;;;;;1.37;1.30;;;;;;;2.80;74.73;101786.59;6141698;29;20419;-73
2021/11/23 07:57:25;;;;;;;1.20;1.20;;;;;;;2.67;75.13;101790.59;6142055;29;20197;-72
2021/11/23 08:00:30;;;;;;;1.60;1.20;;;;;;;2.73;74.77;101785.47;6142208;29;20239;-73
2021/11/23 08:03:35;;;;;;;1.30;1.20;;;;;;;2.73;74.24;101790.00;6141305;29;20204;-73
2021/11/23 08:06:39;;;;;;;1.10;1.10;;;;;;;2.77;74.97;101791.44;6140925;29;20201;-72
2021/11/23 08:09:44;;;;;;;3.73;1.40;;;;;;;2.73;75.12;101793.56;6140630;29;20379;-72
2021/11/23 08:12:48;;;;;;;1.20;1.20;;;;;;;2.80;75.44;101793.88;6141755;29;20191;-72
2021/11/23 08:15:54;;;;;;;3.30;1.20;;;;;;;2.98;74.64;101794.78;6139574;29;20283;-72
2021/11/23 08:18:58;;;;;;;1.40;1.10;;;;;;;2.99;74.91;101785.72;6140895;29;20197;-72
2021/11/23 08:22:02;;;;;;;1.20;1.20;;;;;;;3.01;75.46;101778.34;6141723;29;20191;-72
2021/11/23 08:25:10;;;;;;;1.47;1.30;;;;;;;3.07;75.00;101777.75;6141241;29;20196;-72
2021/11/23 08:28:18;;;;;;;1.30;1.20;;;;;;;2.99;75.12;101791.13;6141589;29;20198;-72
2021/11/23 08:31:24;;;;;;;1.20;1.20;;;;;;;2.95;75.70;101792.41;6141254;29;20189;-72
2021/11/23 08:34:28;;;;;;;1.97;1.40;;;;;;;2.91;75.13;101785.59;6140172;29;20220;-72
2021/11/23 08:37:33;;;;;;;5.70;1.30;;;;;;;3.00;75.26;101787.44;6144391;29;20195;-72
2021/11/23 08:40:38;;;;;;;2.40;1.13;;;;;;;3.03;74.17;101803.34;6144228;29;20197;-72
2021/11/23 08:43:42;;;;;;;1.37;1.37;;;;;;;2.94;74.67;101804.19;6144756;29;20190;-71
2021/11/23 08:46:47;;;;;;;2.13;1.10;;;;;;;2.95;75.15;101797.81;6144407;29;20198;-71
2021/11/23 08:49:52;;;;;;;2.13;0.97;;;;;;;3.14;75.04;101795.06;6143919;29;20254;-71
2021/11/23 08:52:58;;;;;;;2.13;1.43;;;;;;;3.12;74.68;101797.06;6144754;29;20191;-72
2021/11/23 08:56:02;;;;;;;1.53;1.30;;;;;;;3.14;73.97;101797.75;6144491;29;20245;-71
2021/11/23 08:59:09;;;;;;;1.07;1.03;;;;;;;2.99;74.63;101797.38;6144962;29;20255;-74
2021/11/23 09:02:18;;;;;;;2.60;1.30;;;;;;;3.16;73.84;101796.59;6143882;29;20309;-73
2021/11/23 09:05:23;;;;;;;1.40;1.30;;;;;;;3.21;73.92;101795.34;6144270;29;20463;-72
2021/11/23 09:08:28;;;;;;;2.00;1.40;;;;;;;3.23;73.67;101788.81;6144650;29;20197;-73
2021/11/23 09:11:32;;;;;;;2.97;1.40;;;;;;;3.20;74.28;101799.88;6139917;29;20530;-72
2021/11/23 09:14:38;;;;;;;3.33;1.20;;;;;;;3.36;74.45;101793.88;6140159;29;20192;-72
2021/11/23 09:17:44;;;;;;;1.00;1.00;;;;;;;3.43;74.28;101801.22;6141227;29;20257;-72
2021/11/23 09:20:48;;;;;;;1.00;1.00;;;;;;;3.54;74.99;101787.56;6141084;29;20192;-72
2021/11/23 09:23:52;;;;;;;5.40;1.33;;;;;;;3.48;74.88;101788.13;6140866;29;20244;-72
2021/11/23 09:26:57;;;;;;;1.50;1.10;;;;;;;3.55;75.91;101783.84;6142283;29;20258;-72
2021/11/23 09:30:01;;;;;;;2.70;1.30;;;;;;;3.57;75.09;101786.41;6144379;29;20268;-73
2021/11/23 09:33:08;;;;;;;1.80;1.17;;;;;;;3.56;75.99;101790.94;6145397;29;20211;-72
2021/11/23 09:36:14;;;;;;;2.00;1.40;;;;;;;3.68;75.61;101789.75;6143889;29;20448;-72
2021/11/23 09:39:19;;;;;;;1.23;1.03;;;;;;;3.73;75.85;101798.25;6145006;29;20191;-73
2021/11/23 09:42:23;;;;;;;1.10;1.10;;;;;;;3.79;75.08;101796.81;6144180;29;20191;-72
2021/11/23 09:45:28;;;;;;;1.20;1.20;;;;;;;3.84;75.10;101788.25;6143811;29;20195;-73
2021/11/23 09:48:34;;;;;;;9.20;1.37;;;;;;;3.86;75.10;101787.09;6144970;29;20199;-74
2021/11/23 09:51:40;;;;;;;2.43;1.20;;;;;;;3.76;74.59;101787.16;6143589;29;20221;-73
2021/11/23 09:54:44;;;;;;;2.83;1.20;;;;;;;3.93;74.76;101781.97;6144521;29;20198;-72
2021/11/23 09:57:48;;;;;;;1.20;1.20;;;;;;;4.10;74.61;101786.53;6143448;29;20213;-73
2021/11/23 10:00:53;;;;;;;4.10;1.30;;;;;;;4.06;74.09;101782.41;6144723;29;20199;-72
2021/11/23 10:04:05;;;;;;;1.43;1.27;;;;;;;4.07;74.63;101774.19;6144427;29;20240;-73
2021/11/23 10:07:09;;;;;;;4.23;1.33;;;;;;;4.00;73.63;101772.25;6144468;29;20195;-73
2021/11/23 10:10:17;;;;;;;0.97;0.97;;;;;;;4.08;73.97;101769.63;6143347;29;20191;-74
2021/11/23 10:13:24;;;;;;;3.40;1.37;;;;;;;4.05;73.13;101780.72;6143319;29;20263;-73
2021/11/23 10:16:39;;;;;;;1.30;1.30;;;;;;;4.01;73.84;101790.13;6143931;29;20274;-73
2021/11/23 10:19:45;;;;;;;3.03;1.40;;;;;;;4.09;74.03;101780.28;6142969;29;20222;-74
2021/11/23 10:22:49;;;;;;;1.70;1.03;;;;;;;4.19;73.68;101793.69;6143969;29;20199;-74
2021/11/23 10:25:56;;;;;;;1.47;1.40;;;;;;;4.30;73.11;101785.38;6142894;29;20276;-73
2021/11/23 10:29:03;;;;;;;3.10;1.30;;;;;;;4.42;72.38;101784.16;6143678;29;20195;-74
2021/11/23 10:32:14;;;;;;;4.03;1.73;;;;;;;4.35;72.09;101794.75;6144160;29;20191;-73
2021/11/23 10:35:22;;;;;;;2.73;1.40;;;;;;;4.43;71.17;101781.31;6143681;29;20199;-73
2021/11/23 10:38:27;;;;;;;1.17;1.07;;;;;;;4.42;71.75;101784.16;6142658;29;20189;-73
2021/11/23 10:41:32;;;;;;;1.40;1.40;;;;;;;4.41;72.17;101794.13;6143495;29;20196;-73
2021/11/23 10:44:36;;;;;;;5.17;1.37;;;;;;;4.58;71.73;101789.72;6143278;29;20191;-72
2021/11/23 10:47:47;;;;;;;1.30;1.30;;;;;;;4.62;71.16;101785.72;6143455;29;20247;-72
2021/11/23 10:51:05;;;;;;;3.17;1.30;;;;;;;4.59;70.78;101785.16;6143187;29;20224;-73
2021/11/23 10:54:13;;;;;;;1.53;1.43;;;;;;;4.72;70.37;101786.47;6143101;29;20410;-72
2021/11/23 10:57:18;;;;;;;1.50;1.50;;;;;;;4.66;70.72;101776.28;6143286;29;20263;-72
2021/11/23 11:00:24;;;;;;;1.67;1.10;;;;;;;4.81;69.63;101785.53;6142774;29;20195;-72
2021/11/23 11:03:31;;;;;;;12.40;5.53;;;;;;;4.76;69.66;101787.84;6142657;29;20205;-72
2021/11/23 11:06:38;;;;;;;7.00;3.70;;;;;;;4.91;69.32;101778.16;6095256;29;20503;-72
2021/11/23 11:09:43;;;;;;;3.20;2.43;;;;;;;4.93;69.02;101773.44;6094970;29;20444;-72
2021/11/23 11:12:47;;;;;;;6.60;1.70;;;;;;;4.97;69.06;101780.25;6095912;29;20298;-73
2021/11/23 11:15:56;;;;;;;7.87;1.43;;;;;;;4.97;69.40;101774.84;6094691;29;20192;-73
2021/11/23 11:19:06;;;;;;;4.10;1.30;;;;;;;4.79;69.13;101776.72;6094765;29;20509;-72
2021/11/23 11:22:14;;;;;;;3.73;0.97;;;;;;;4.91;69.49;101775.47;6095983;29;20201;-73
2021/11/23 11:25:23;;;;;;;1.90;1.20;;;;;;;5.00;69.08;101774.53;6095688;29;20198;-73
2021/11/23 11:28:53;;;;;;;4.00;1.30;;;;;;;5.00;69.53;101785.34;6094504;29;20205;-73
2021/11/23 11:31:59;;;;;;;1.40;1.30;;;;;;;5.07;69.67;101781.00;6092971;29;20210;-73
2021/11/23 11:35:21;;;;;;;2.47;1.47;;;;;;;5.13;69.57;101773.25;6094775;29;20198;-73
2021/11/23 11:38:41;;;;;;;1.60;1.43;;;;;;;5.09;69.86;101775.41;6094361;29;20218;-72
2021/11/23 11:41:46;;;;;;;1.27;1.20;;;;;;;5.13;70.18;101773.25;6094069;29;20204;-72
2021/11/23 11:44:53;;;;;;;5.90;1.60;;;;;;;5.21;70.17;101770.59;6094736;29;20199;-73
2021/11/23 11:47:58;;;;;;;2.10;1.17;;;;;;;5.11;69.94;101780.69;6095270;29;20263;-73
2021/11/23 11:51:04;;;;;;;1.30;1.20;;;;;;;5.08;70.34;101771.03;6095154;29;20190;-73
2021/11/23 11:54:20;;;;;;;1.30;1.20;;;;;;;5.01;70.24;101773.50;6094679;29;20199;-72
2021/11/23 11:57:28;;;;;;;1.20;1.10;;;;;;;5.15;70.27;101768.53;6094253;29;20219;-72
2021/11/23 12:00:35;;;;;;;6.53;1.73;;;;;;;5.10;70.52;101754.63;6095061;29;20308;-73
2021/11/23 12:03:40;;;;;;;2.53;1.40;;;;;;;4.93;69.35;101754.50;6096373;29;20207;-73
2021/11/23 12:07:20;;;;;;;4.87;1.27;;;;;;;4.77;70.16;101745.44;6140577;29;20193;-72
2021/11/23 12:10:32;;;;;;;1.27;1.20;;;;;;;5.00;69.48;101750.19;6136696;29;20205;-73
2021/11/23 12:13:45;;;;;;;4.77;1.20;;;;;;;5.12;69.37;101760.72;6140715;29;20190;-73
2021/11/23 12:16:58;;;;;;;2.43;1.10;;;;;;;5.01;68.94;101749.16;6140773;29;20246;-73
2021/11/23 12:20:37;;;;;;;1.33;1.23;;;;;;;4.96;68.99;101751.50;6140604;29;20556;-72
2021/11/23 12:23:49;;;;;;;5.10;1.30;;;;;;;5.07;68.69;101764.75;6140504;29;20550;-72
2021/11/23 12:26:56;;;;;;;2.20;1.10;;;;;;;4.94;68.95;101758.91;6140622;29;20202;-73
2021/11/23 12:30:00;;;;;;;2.70;1.50;;;;;;;4.83;70.08;101756.47;6140331;29;20284;-72
2021/11/23 12:33:07;;;;;;;8.03;1.60;;;;;;;5.08;68.40;101755.63;6140346;29;20500;-72
2021/11/23 12:36:14;;;;;;;2.27;1.53;;;;;;;5.07;67.59;101748.53;6140241;29;20228;-72
2021/11/23 12:39:21;;;;;;;4.47;1.60;;;;;;;5.04;67.59;101748.84;6141434;29;20286;-72
2021/11/23 12:42:29;;;;;;;5.80;2.10;;;;;;;5.06;67.57;101741.41;6140181;29;20252;-73
2021/11/23 12:45:41;;;;;;;2.10;1.90;;;;;;;5.19;67.47;101751.81;6141486;29;20190;-72
2021/11/23 12:48:47;;;;;;;9.37;1.63;;;;;;;5.24;67.07;101759.47;6140262;29;20390;-72
2021/11/23 12:51:58;;;;;;;1.50;1.40;;;;;;;5.22;66.59;101750.63;6141238;29;20254;-72
2021/11/23 12:55:03;;;;;;;2.77;1.50;;;;;;;5.29;66.53;101759.81;6141060;29;20225;-72
2021/11/23 12:58:10;;;;;;;1.57;1.47;;;;;;;5.20;66.42;101747.25;6140552;29;20217;-73
2021/11/23 13:01:29;;;;;;;4.03;1.60;;;;;;;5.22;66.07;101750.63;6141752;29;20214;-72
2021/11/23 13:04:38;;;;;;;2.67;1.57;;;;;;;5.22;66.06;101739.81;6145909;29;20249;-73
2021/11/23 13:07:44;;;;;;;4.73;1.77;;;;;;;5.10;67.13;101735.69;6145583;29;20201;-72
2021/11/23 13:10:49;;;;;;;8.77;1.60;;;;;;;5.09;67.17;101729.44;6145787;29;20197;-72
2021/11/23 13:13:55;;;;;;;1.60;1.43;;;;;;;4.97;66.56;101731.56;6144318;29;20242;-72
2021/11/23 13:17:00;;;;;;;2.43;1.67;;;;;;;5.03;67.09;101725.50;6144651;29;20190;-72
2021/11/23 13:20:07;;;;;;;5.47;1.30;;;;;;;5.05;65.00;101723.50;6144776;29;20268;-72
2021/11/23 13:23:17;;;;;;;7.37;1.70;;;;;;;5.20;65.48;101709.38;6145266;29;20212;-72
2021/11/23 13:26:27;;;;;;;2.27;1.70;;;;;;;5.14;65.61;101704.59;6144116;29;20230;-72
2021/11/23 13:29:34;;;;;;;6.93;1.60;;;;;;;5.08;65.19;101700.69;6145163;29;20250;-72
2021/11/23 13:32:44;;;;;;;4.87;1.50;;;;;;;5.01;65.17;101695.06;6145352;29;20222;-72
2021/11/23 13:36:01;;;;;;;7.07;1.50;;;;;;;5.02;65.26;101707.59;6144920;29;20197;-72
2021/11/23 13:39:13;;;;;;;7.10;1.37;;;;;;;5.01;64.61;101714.00;6145050;29;20245;-72
2021/11/23 13:42:21;;;;;;;7.00;1.70;;;;;;;4.94;65.01;101712.94;6144822;29;20264;-73
2021/11/23 13:45:28;;;;;;;4.10;1.60;;;;;;;4.95;65.21;101722.78;6145102;29;20255;-72
2021/11/23 13:48:33;;;;;;;2.20;1.63;;;;;;;4.87;65.65;101703.78;6143806;29;20464;-72
2021/11/23 13:51:38;;;;;;;2.27;1.50;;;;;;;4.87;65.97;101709.19;6144441;29;20191;-72
2021/11/23 13:54:44;;;;;;;8.93;1.53;;;;;;;4.91;65.35;101715.97;6144569;29;20223;-72
2021/11/23 13:58:11;;;;;;;4.40;1.60;;;;;;;4.90;64.97;101714.28;6145144;29;20225;-72
2021/11/23 14:01:17;;;;;;;2.70;1.80;;;;;;;4.80;66.78;101694.59;6143877;29;20245;-72
2021/11/23 14:04:25;;;;;;;7.37;1.63;;;;;;;4.75;66.34;101691.50;6144319;29;20234;-73
2021/11/23 14:07:30;;;;;;;5.23;1.50;;;;;;;4.78;66.27;101683.09;6144820;29;20226;-72
2021/11/23 14:10:37;;;;;;;1.83;1.67;;;;;;;4.80;65.49;101681.06;6144676;29;20212;-72
2021/11/23 14:13:41;;;;;;;2.53;1.53;;;;;;;4.82;65.85;101683.63;6144256;29;20268;-72
2021/11/23 14:16:53;;;;;;;5.73;1.60;;;;;;;4.68;66.39;101671.53;6144139;29;20195;-72
2021/11/23 14:20:07;;;;;;;3.40;1.30;;;;;;;4.60;66.79;101663.38;6144334;29;20217;-73
2021/11/23 14:23:15;;;;;;;7.07;1.60;;;;;;;4.56;66.14;101667.41;6142814;29;20254;-72
2021/11/23 14:26:21;;;;;;;4.73;1.67;;;;;;;4.50;66.49;101662.63;6143701;29;20197;-72
2021/11/23 14:29:27;;;;;;;2.73;1.50;;;;;;;4.56;66.76;101662.00;6142547;29;20382;-72
2021/11/23 14:32:32;;;;;;;1.40;1.37;;;;;;;4.46;66.61;101650.44;6143580;29;20191;-72
2021/11/23 14:35:37;;;;;;;4.70;1.80;;;;;;;4.36;65.83;101650.56;6143538;29;20192;-72
2021/11/23 14:38:41;;;;;;;6.07;1.30;;;;;;;4.45;66.75;101654.13;6142260;29;20214;-73